sensor_id;sensor_type;location;lat;lon;timestamp;P1;durP1;ratioP1;P2;durP2;ratioP2
37063;SDS011;23211;53.912;9.138;2022-09-23T00:00:07;5.10;;;1.73;;
37063;SDS011;23211;53.912;9.138;2022-09-23T00:02:53;3.17;;;1.80;;
37063;SDS011;23211;53.912;9.138;2022-09-23T00:05:39;2.53;;;1.90;;
37063;SDS011;23211;53.912;9.138;2022-09-23T00:08:24;3.30;;;1.92;;
37063;SDS011;23211;53.912;9.138;2022-09-23T00:11:12;1.98;;;1.73;;
37063;SDS011;23211;53.912;9.138;2022-09-23T00:13:59;3.13;;;2.05;;
37063;SDS011;23211;53.912;9.138;2022-09-23T00:16:45;2.58;;;1.70;;
37063;SDS011;23211;53.912;9.138;2022-09-23T00:19:31;5.68;;;2.25;;
37063;SDS011;23211;53.912;9.138;2022-09-23T00:22:17;2.53;;;1.80;;
37063;SDS011;23211;53.912;9.138;2022-09-23T00:25:03;3.03;;;2.00;;
37063;SDS011;23211;53.912;9.138;2022-09-23T00:27:50;4.10;;;2.03;;
37063;SDS011;23211;53.912;9.138;2022-09-23T00:30:39;3.17;;;1.75;;
37063;SDS011;23211;53.912;9.138;2022-09-23T00:33:25;3.33;;;1.70;;
37063;SDS011;23211;53.912;9.138;2022-09-23T00:36:14;2.90;;;2.13;;
37063;SDS011;23211;53.912;9.138;2022-09-23T00:39:00;5.03;;;1.92;;
37063;SDS011;23211;53.912;9.138;2022-09-23T00:41:48;4.47;;;1.73;;
37063;SDS011;23211;53.912;9.138;2022-09-23T00:44:54;3.30;;;1.90;;
37063;SDS011;23211;53.912;9.138;2022-09-23T00:47:46;1.85;;;1.38;;
37063;SDS011;23211;53.912;9.138;2022-09-23T00:50:35;2.92;;;1.98;;
37063;SDS011;23211;53.912;9.138;2022-09-23T00:53:24;4.10;;;1.92;;
37063;SDS011;23211;53.912;9.138;2022-09-23T00:56:11;2.70;;;1.67;;
37063;SDS011;23211;53.912;9.138;2022-09-23T00:58:58;4.38;;;1.55;;
37063;SDS011;23211;53.912;9.138;2022-09-23T01:01:45;4.50;;;1.80;;
37063;SDS011;23211;53.912;9.138;2022-09-23T01:04:33;2.80;;;1.60;;
37063;SDS011;23211;53.912;9.138;2022-09-23T01:07:20;3.72;;;1.50;;
37063;SDS011;23211;53.912;9.138;2022-09-23T01:10:06;1.88;;;1.50;;
37063;SDS011;23211;53.912;9.138;2022-09-23T01:13:03;2.97;;;1.83;;
37063;SDS011;23211;53.912;9.138;2022-09-23T01:22:29;2.33;;;1.50;;
37063;SDS011;23211;53.912;9.138;2022-09-23T01:35:13;2.00;;;1.50;;
37063;SDS011;23211;53.912;9.138;2022-09-23T01:44:47;4.50;;;1.90;;
37063;SDS011;23211;53.912;9.138;2022-09-23T01:47:41;2.35;;;1.80;;
37063;SDS011;23211;53.912;9.138;2022-09-23T01:50:41;2.15;;;1.30;;
37063;SDS011;23211;53.912;9.138;2022-09-23T01:53:44;3.10;;;1.70;;
37063;SDS011;23211;53.912;9.138;2022-09-23T01:56:34;2.63;;;1.70;;
37063;SDS011;23211;53.912;9.138;2022-09-23T01:59:33;2.25;;;1.65;;
37063;SDS011;23211;53.912;9.138;2022-09-23T02:05:14;1.83;;;1.25;;
37063;SDS011;23211;53.912;9.138;2022-09-23T02:08:16;2.15;;;1.25;;
37063;SDS011;23211;53.912;9.138;2022-09-23T02:14:03;2.03;;;1.60;;
37063;SDS011;23211;53.912;9.138;2022-09-23T02:19:47;3.90;;;1.55;;
37063;SDS011;23211;53.912;9.138;2022-09-23T02:25:41;7.45;;;1.52;;
37063;SDS011;23211;53.912;9.138;2022-09-23T02:28:30;1.83;;;1.50;;
37063;SDS011;23211;53.912;9.138;2022-09-23T02:40:18;2.22;;;1.70;;
37063;SDS011;23211;53.912;9.138;2022-09-23T02:43:56;4.10;;;2.30;;
37063;SDS011;23211;53.912;9.138;2022-09-23T02:46:41;2.28;;;1.40;;
37063;SDS011;23211;53.912;9.138;2022-09-23T02:49:29;3.00;;;1.63;;
37063;SDS011;23211;53.912;9.138;2022-09-23T02:52:15;2.83;;;1.63;;
37063;SDS011;23211;53.912;9.138;2022-09-23T02:55:01;2.33;;;1.65;;
37063;SDS011;23211;53.912;9.138;2022-09-23T02:57:48;3.40;;;1.75;;
37063;SDS011;23211;53.912;9.138;2022-09-23T03:07:24;2.95;;;1.70;;
37063;SDS011;23211;53.912;9.138;2022-09-23T03:13:41;4.25;;;1.65;;
37063;SDS011;23211;53.912;9.138;2022-09-23T03:22:50;3.58;;;1.52;;
37063;SDS011;23211;53.912;9.138;2022-09-23T03:25:40;4.13;;;1.58;;
37063;SDS011;23211;53.912;9.138;2022-09-23T03:28:30;1.80;;;1.38;;
37063;SDS011;23211;53.912;9.138;2022-09-23T03:31:16;5.47;;;1.60;;
37063;SDS011;23211;53.912;9.138;2022-09-23T03:34:04;3.72;;;1.55;;
37063;SDS011;23211;53.912;9.138;2022-09-23T03:36:55;3.15;;;1.50;;
37063;SDS011;23211;53.912;9.138;2022-09-23T03:39:56;3.95;;;1.75;;
37063;SDS011;23211;53.912;9.138;2022-09-23T03:42:48;6.28;;;2.40;;
37063;SDS011;23211;53.912;9.138;2022-09-23T03:45:34;3.20;;;1.75;;
37063;SDS011;23211;53.912;9.138;2022-09-23T03:48:20;2.88;;;1.50;;
37063;SDS011;23211;53.912;9.138;2022-09-23T03:51:09;3.95;;;1.48;;
37063;SDS011;23211;53.912;9.138;2022-09-23T03:54:04;1.98;;;1.73;;
37063;SDS011;23211;53.912;9.138;2022-09-23T03:56:50;8.25;;;1.80;;
37063;SDS011;23211;53.912;9.138;2022-09-23T03:59:36;3.17;;;1.83;;
37063;SDS011;23211;53.912;9.138;2022-09-23T04:02:22;2.83;;;1.85;;
37063;SDS011;23211;53.912;9.138;2022-09-23T04:05:08;3.50;;;1.70;;
37063;SDS011;23211;53.912;9.138;2022-09-23T04:07:55;2.72;;;1.55;;
37063;SDS011;23211;53.912;9.138;2022-09-23T04:10:41;7.10;;;1.80;;
37063;SDS011;23211;53.912;9.138;2022-09-23T04:13:27;3.10;;;1.70;;
37063;SDS011;23211;53.912;9.138;2022-09-23T04:16:13;4.30;;;1.73;;
37063;SDS011;23211;53.912;9.138;2022-09-23T04:18:59;4.97;;;1.63;;
37063;SDS011;23211;53.912;9.138;2022-09-23T04:21:45;3.00;;;1.60;;
37063;SDS011;23211;53.912;9.138;2022-09-23T04:24:32;2.28;;;1.33;;
37063;SDS011;23211;53.912;9.138;2022-09-23T04:27:17;4.35;;;1.60;;
37063;SDS011;23211;53.912;9.138;2022-09-23T04:30:03;2.45;;;1.77;;
37063;SDS011;23211;53.912;9.138;2022-09-23T04:32:51;5.88;;;2.00;;
37063;SDS011;23211;53.912;9.138;2022-09-23T04:35:37;2.65;;;1.60;;
37063;SDS011;23211;53.912;9.138;2022-09-23T04:38:24;3.40;;;1.48;;
37063;SDS011;23211;53.912;9.138;2022-09-23T04:41:10;5.75;;;1.67;;
37063;SDS011;23211;53.912;9.138;2022-09-23T04:43:56;3.65;;;1.70;;
37063;SDS011;23211;53.912;9.138;2022-09-23T04:46:42;2.78;;;1.80;;
37063;SDS011;23211;53.912;9.138;2022-09-23T04:49:31;2.95;;;2.15;;
37063;SDS011;23211;53.912;9.138;2022-09-23T04:52:18;3.25;;;1.70;;
37063;SDS011;23211;53.912;9.138;2022-09-23T04:55:03;2.03;;;1.73;;
37063;SDS011;23211;53.912;9.138;2022-09-23T04:57:50;2.65;;;1.70;;
37063;SDS011;23211;53.912;9.138;2022-09-23T05:00:35;2.45;;;1.88;;
37063;SDS011;23211;53.912;9.138;2022-09-23T05:03:22;2.92;;;1.83;;
37063;SDS011;23211;53.912;9.138;2022-09-23T05:06:09;2.92;;;1.88;;
37063;SDS011;23211;53.912;9.138;2022-09-23T05:08:58;2.63;;;1.67;;
37063;SDS011;23211;53.912;9.138;2022-09-23T05:11:44;3.65;;;1.70;;
37063;SDS011;23211;53.912;9.138;2022-09-23T05:14:30;3.92;;;1.80;;
37063;SDS011;23211;53.912;9.138;2022-09-23T05:17:16;5.90;;;1.85;;
37063;SDS011;23211;53.912;9.138;2022-09-23T05:20:02;2.20;;;1.73;;
37063;SDS011;23211;53.912;9.138;2022-09-23T05:22:49;2.60;;;1.80;;
37063;SDS011;23211;53.912;9.138;2022-09-23T05:25:34;3.03;;;1.63;;
37063;SDS011;23211;53.912;9.138;2022-09-23T05:28:20;2.63;;;1.70;;
37063;SDS011;23211;53.912;9.138;2022-09-23T05:31:07;4.18;;;1.80;;
37063;SDS011;23211;53.912;9.138;2022-09-23T05:33:54;5.97;;;2.42;;
37063;SDS011;23211;53.912;9.138;2022-09-23T05:36:42;6.45;;;2.70;;
37063;SDS011;23211;53.912;9.138;2022-09-23T05:39:27;5.28;;;3.55;;
37063;SDS011;23211;53.912;9.138;2022-09-23T05:42:14;3.42;;;1.90;;
37063;SDS011;23211;53.912;9.138;2022-09-23T05:45:00;6.85;;;2.55;;
37063;SDS011;23211;53.912;9.138;2022-09-23T05:47:46;4.68;;;2.53;;
37063;SDS011;23211;53.912;9.138;2022-09-23T05:50:31;4.60;;;2.30;;
37063;SDS011;23211;53.912;9.138;2022-09-23T05:53:17;4.35;;;2.35;;
37063;SDS011;23211;53.912;9.138;2022-09-23T05:56:03;2.30;;;1.75;;
37063;SDS011;23211;53.912;9.138;2022-09-23T05:58:50;6.15;;;2.40;;
37063;SDS011;23211;53.912;9.138;2022-09-23T06:01:38;3.95;;;2.17;;
37063;SDS011;23211;53.912;9.138;2022-09-23T06:04:23;4.22;;;1.63;;
37063;SDS011;23211;53.912;9.138;2022-09-23T06:07:09;4.55;;;1.80;;
37063;SDS011;23211;53.912;9.138;2022-09-23T06:09:55;2.42;;;2.00;;
37063;SDS011;23211;53.912;9.138;2022-09-23T06:12:41;3.42;;;2.42;;
37063;SDS011;23211;53.912;9.138;2022-09-23T06:15:29;3.30;;;2.55;;
37063;SDS011;23211;53.912;9.138;2022-09-23T06:18:15;4.95;;;2.35;;
37063;SDS011;23211;53.912;9.138;2022-09-23T06:21:01;2.85;;;2.00;;
37063;SDS011;23211;53.912;9.138;2022-09-23T06:23:48;3.53;;;1.83;;
37063;SDS011;23211;53.912;9.138;2022-09-23T06:26:34;4.05;;;2.20;;
37063;SDS011;23211;53.912;9.138;2022-09-23T06:29:22;2.70;;;2.15;;
37063;SDS011;23211;53.912;9.138;2022-09-23T06:32:08;4.00;;;2.53;;
37063;SDS011;23211;53.912;9.138;2022-09-23T06:34:53;4.15;;;2.30;;
37063;SDS011;23211;53.912;9.138;2022-09-23T06:37:39;3.38;;;2.35;;
37063;SDS011;23211;53.912;9.138;2022-09-23T06:40:25;4.03;;;2.20;;
37063;SDS011;23211;53.912;9.138;2022-09-23T06:43:11;9.00;;;1.90;;
37063;SDS011;23211;53.912;9.138;2022-09-23T06:45:59;5.45;;;2.13;;
37063;SDS011;23211;53.912;9.138;2022-09-23T06:48:48;2.70;;;2.00;;
37063;SDS011;23211;53.912;9.138;2022-09-23T06:51:35;5.93;;;1.90;;
37063;SDS011;23211;53.912;9.138;2022-09-23T06:54:21;2.83;;;2.05;;
37063;SDS011;23211;53.912;9.138;2022-09-23T06:57:06;5.80;;;2.20;;
37063;SDS011;23211;53.912;9.138;2022-09-23T06:59:54;6.10;;;2.45;;
37063;SDS011;23211;53.912;9.138;2022-09-23T07:02:40;3.92;;;1.77;;
37063;SDS011;23211;53.912;9.138;2022-09-23T07:05:26;2.70;;;2.22;;
37063;SDS011;23211;53.912;9.138;2022-09-23T07:08:12;2.90;;;1.80;;
37063;SDS011;23211;53.912;9.138;2022-09-23T07:10:58;3.50;;;2.03;;
37063;SDS011;23211;53.912;9.138;2022-09-23T07:13:45;4.88;;;2.10;;
37063;SDS011;23211;53.912;9.138;2022-09-23T07:16:31;4.10;;;2.20;;
37063;SDS011;23211;53.912;9.138;2022-09-23T07:19:17;2.20;;;1.75;;
37063;SDS011;23211;53.912;9.138;2022-09-23T07:22:03;2.67;;;1.67;;
37063;SDS011;23211;53.912;9.138;2022-09-23T07:24:52;2.45;;;1.60;;
37063;SDS011;23211;53.912;9.138;2022-09-23T07:27:40;2.42;;;1.88;;
37063;SDS011;23211;53.912;9.138;2022-09-23T07:30:26;2.90;;;1.80;;
37063;SDS011;23211;53.912;9.138;2022-09-23T07:33:12;3.00;;;2.38;;
37063;SDS011;23211;53.912;9.138;2022-09-23T07:35:57;2.42;;;1.85;;
37063;SDS011;23211;53.912;9.138;2022-09-23T07:38:44;2.97;;;2.00;;
37063;SDS011;23211;53.912;9.138;2022-09-23T07:41:31;3.67;;;1.83;;
37063;SDS011;23211;53.912;9.138;2022-09-23T07:44:18;3.03;;;2.28;;
37063;SDS011;23211;53.912;9.138;2022-09-23T07:47:06;2.80;;;2.20;;
37063;SDS011;23211;53.912;9.138;2022-09-23T07:49:52;4.80;;;1.88;;
37063;SDS011;23211;53.912;9.138;2022-09-23T07:52:38;3.28;;;1.98;;
37063;SDS011;23211;53.912;9.138;2022-09-23T07:55:24;3.13;;;2.10;;
37063;SDS011;23211;53.912;9.138;2022-09-23T07:58:10;4.45;;;1.92;;
37063;SDS011;23211;53.912;9.138;2022-09-23T08:01:00;2.65;;;1.73;;
37063;SDS011;23211;53.912;9.138;2022-09-23T08:06:32;4.57;;;1.52;;
37063;SDS011;23211;53.912;9.138;2022-09-23T08:09:20;6.35;;;1.95;;
37063;SDS011;23211;53.912;9.138;2022-09-23T08:12:08;4.25;;;2.50;;
37063;SDS011;23211;53.912;9.138;2022-09-23T08:14:55;2.35;;;2.10;;
37063;SDS011;23211;53.912;9.138;2022-09-23T08:17:41;4.10;;;1.90;;
37063;SDS011;23211;53.912;9.138;2022-09-23T08:20:27;5.20;;;2.20;;
37063;SDS011;23211;53.912;9.138;2022-09-23T08:23:28;6.13;;;1.88;;
37063;SDS011;23211;53.912;9.138;2022-09-23T08:26:17;4.32;;;1.85;;
37063;SDS011;23211;53.912;9.138;2022-09-23T08:29:03;6.47;;;2.63;;
37063;SDS011;23211;53.912;9.138;2022-09-23T08:31:51;3.83;;;2.33;;
37063;SDS011;23211;53.912;9.138;2022-09-23T08:34:37;3.17;;;2.00;;
37063;SDS011;23211;53.912;9.138;2022-09-23T08:37:23;6.38;;;2.42;;
37063;SDS011;23211;53.912;9.138;2022-09-23T08:40:08;5.07;;;2.35;;
37063;SDS011;23211;53.912;9.138;2022-09-23T08:42:54;5.57;;;2.30;;
37063;SDS011;23211;53.912;9.138;2022-09-23T08:45:41;4.00;;;2.35;;
37063;SDS011;23211;53.912;9.138;2022-09-23T08:48:33;2.90;;;2.10;;
37063;SDS011;23211;53.912;9.138;2022-09-23T08:51:25;7.53;;;2.58;;
37063;SDS011;23211;53.912;9.138;2022-09-23T08:54:24;2.72;;;2.05;;
37063;SDS011;23211;53.912;9.138;2022-09-23T08:57:16;5.57;;;2.47;;
37063;SDS011;23211;53.912;9.138;2022-09-23T09:00:20;5.88;;;2.40;;
37063;SDS011;23211;53.912;9.138;2022-09-23T09:03:25;2.58;;;1.73;;
37063;SDS011;23211;53.912;9.138;2022-09-23T09:06:26;3.33;;;2.00;;
37063;SDS011;23211;53.912;9.138;2022-09-23T09:12:21;3.42;;;2.50;;
37063;SDS011;23211;53.912;9.138;2022-09-23T09:15:14;7.65;;;2.20;;
37063;SDS011;23211;53.912;9.138;2022-09-23T09:18:04;4.03;;;2.58;;
37063;SDS011;23211;53.912;9.138;2022-09-23T09:20:59;4.60;;;2.20;;
37063;SDS011;23211;53.912;9.138;2022-09-23T09:23:56;3.92;;;2.22;;
37063;SDS011;23211;53.912;9.138;2022-09-23T09:26:44;4.28;;;2.47;;
37063;SDS011;23211;53.912;9.138;2022-09-23T09:29:35;3.30;;;2.25;;
37063;SDS011;23211;53.912;9.138;2022-09-23T09:32:34;3.55;;;2.50;;
37063;SDS011;23211;53.912;9.138;2022-09-23T09:35:35;3.67;;;2.08;;
37063;SDS011;23211;53.912;9.138;2022-09-23T09:38:22;11.85;;;2.35;;
37063;SDS011;23211;53.912;9.138;2022-09-23T09:41:13;3.22;;;2.13;;
37063;SDS011;23211;53.912;9.138;2022-09-23T09:44:00;4.22;;;1.95;;
37063;SDS011;23211;53.912;9.138;2022-09-23T09:47:05;7.63;;;2.40;;
37063;SDS011;23211;53.912;9.138;2022-09-23T09:50:10;6.90;;;2.70;;
37063;SDS011;23211;53.912;9.138;2022-09-23T09:53:13;2.75;;;1.77;;
37063;SDS011;23211;53.912;9.138;2022-09-23T09:56:16;2.90;;;2.15;;
37063;SDS011;23211;53.912;9.138;2022-09-23T09:59:10;3.15;;;2.22;;
37063;SDS011;23211;53.912;9.138;2022-09-23T10:02:10;2.38;;;2.17;;
37063;SDS011;23211;53.912;9.138;2022-09-23T10:05:24;4.80;;;2.50;;
37063;SDS011;23211;53.912;9.138;2022-09-23T10:14:16;3.20;;;2.45;;
37063;SDS011;23211;53.912;9.138;2022-09-23T10:17:03;10.40;;;2.28;;
37063;SDS011;23211;53.912;9.138;2022-09-23T10:19:55;3.03;;;2.03;;
37063;SDS011;23211;53.912;9.138;2022-09-23T10:22:44;4.47;;;2.10;;
37063;SDS011;23211;53.912;9.138;2022-09-23T10:25:30;3.60;;;2.10;;
37063;SDS011;23211;53.912;9.138;2022-09-23T10:28:29;2.90;;;1.73;;
37063;SDS011;23211;53.912;9.138;2022-09-23T10:31:34;9.90;;;2.08;;
37063;SDS011;23211;53.912;9.138;2022-09-23T10:34:21;3.17;;;2.38;;
37063;SDS011;23211;53.912;9.138;2022-09-23T10:37:14;9.35;;;2.20;;
37063;SDS011;23211;53.912;9.138;2022-09-23T10:40:13;5.18;;;2.55;;
37063;SDS011;23211;53.912;9.138;2022-09-23T10:46:46;7.53;;;2.53;;
37063;SDS011;23211;53.912;9.138;2022-09-23T10:53:07;3.30;;;1.90;;
37063;SDS011;23211;53.912;9.138;2022-09-23T10:56:09;3.50;;;1.85;;
37063;SDS011;23211;53.912;9.138;2022-09-23T11:05:23;3.20;;;2.20;;
37063;SDS011;23211;53.912;9.138;2022-09-23T11:11:15;2.90;;;2.25;;
37063;SDS011;23211;53.912;9.138;2022-09-23T11:17:22;3.85;;;2.65;;
37063;SDS011;23211;53.912;9.138;2022-09-23T11:23:40;4.15;;;2.50;;
37063;SDS011;23211;53.912;9.138;2022-09-23T11:26:45;3.90;;;2.60;;
37063;SDS011;23211;53.912;9.138;2022-09-23T11:29:51;2.50;;;2.05;;
37063;SDS011;23211;53.912;9.138;2022-09-23T11:36:00;6.00;;;2.15;;
37063;SDS011;23211;53.912;9.138;2022-09-23T11:38:51;5.95;;;2.35;;
37063;SDS011;23211;53.912;9.138;2022-09-23T11:41:41;3.25;;;2.30;;
37063;SDS011;23211;53.912;9.138;2022-09-23T11:44:32;4.75;;;2.30;;
37063;SDS011;23211;53.912;9.138;2022-09-23T11:47:30;5.18;;;2.53;;
37063;SDS011;23211;53.912;9.138;2022-09-23T11:53:35;5.20;;;1.63;;
37063;SDS011;23211;53.912;9.138;2022-09-23T11:56:29;5.53;;;2.40;;
37063;SDS011;23211;53.912;9.138;2022-09-23T12:02:29;4.45;;;2.38;;
37063;SDS011;23211;53.912;9.138;2022-09-23T12:05:36;3.97;;;1.55;;
37063;SDS011;23211;53.912;9.138;2022-09-23T12:08:27;2.45;;;1.80;;
37063;SDS011;23211;53.912;9.138;2022-09-23T12:11:31;2.65;;;1.48;;
37063;SDS011;23211;53.912;9.138;2022-09-23T12:17:43;1.98;;;1.70;;
37063;SDS011;23211;53.912;9.138;2022-09-23T12:20:44;6.38;;;2.15;;
37063;SDS011;23211;53.912;9.138;2022-09-23T12:24:08;5.40;;;2.30;;
37063;SDS011;23211;53.912;9.138;2022-09-23T12:27:07;3.25;;;1.80;;
37063;SDS011;23211;53.912;9.138;2022-09-23T12:30:14;2.30;;;1.70;;
37063;SDS011;23211;53.912;9.138;2022-09-23T12:33:07;10.15;;;1.67;;
37063;SDS011;23211;53.912;9.138;2022-09-23T12:36:02;2.10;;;1.58;;
37063;SDS011;23211;53.912;9.138;2022-09-23T12:39:06;5.15;;;2.00;;
37063;SDS011;23211;53.912;9.138;2022-09-23T12:42:14;3.20;;;2.03;;
37063;SDS011;23211;53.912;9.138;2022-09-23T12:59:25;5.40;;;1.80;;
37063;SDS011;23211;53.912;9.138;2022-09-23T13:05:31;7.97;;;2.33;;
37063;SDS011;23211;53.912;9.138;2022-09-23T13:08:44;2.92;;;1.67;;
37063;SDS011;23211;53.912;9.138;2022-09-23T13:11:32;4.28;;;2.10;;
37063;SDS011;23211;53.912;9.138;2022-09-23T13:14:21;5.07;;;1.95;;
37063;SDS011;23211;53.912;9.138;2022-09-23T13:17:20;3.53;;;2.00;;
37063;SDS011;23211;53.912;9.138;2022-09-23T13:23:05;4.78;;;2.40;;
37063;SDS011;23211;53.912;9.138;2022-09-23T13:26:01;8.30;;;1.90;;
37063;SDS011;23211;53.912;9.138;2022-09-23T13:28:55;3.30;;;1.85;;
37063;SDS011;23211;53.912;9.138;2022-09-23T13:31:43;5.10;;;1.80;;
37063;SDS011;23211;53.912;9.138;2022-09-23T13:34:31;3.65;;;1.77;;
37063;SDS011;23211;53.912;9.138;2022-09-23T13:37:19;9.98;;;2.30;;
37063;SDS011;23211;53.912;9.138;2022-09-23T13:40:26;2.45;;;1.70;;
37063;SDS011;23211;53.912;9.138;2022-09-23T13:43:24;3.63;;;1.60;;
37063;SDS011;23211;53.912;9.138;2022-09-23T13:46:19;6.40;;;1.95;;
37063;SDS011;23211;53.912;9.138;2022-09-23T13:49:17;8.07;;;1.63;;
37063;SDS011;23211;53.912;9.138;2022-09-23T13:52:44;10.60;;;1.88;;
37063;SDS011;23211;53.912;9.138;2022-09-23T13:55:23;4.22;;;1.80;;
37063;SDS011;23211;53.912;9.138;2022-09-23T13:58:20;3.50;;;1.77;;
37063;SDS011;23211;53.912;9.138;2022-09-23T14:01:30;5.88;;;1.67;;
37063;SDS011;23211;53.912;9.138;2022-09-23T14:04:23;3.05;;;1.70;;
37063;SDS011;23211;53.912;9.138;2022-09-23T14:07:10;5.97;;;2.40;;
37063;SDS011;23211;53.912;9.138;2022-09-23T14:09:58;3.55;;;1.88;;
37063;SDS011;23211;53.912;9.138;2022-09-23T14:12:45;3.05;;;1.98;;
37063;SDS011;23211;53.912;9.138;2022-09-23T14:15:31;3.70;;;1.80;;
37063;SDS011;23211;53.912;9.138;2022-09-23T14:18:25;3.28;;;2.00;;
37063;SDS011;23211;53.912;9.138;2022-09-23T14:21:36;5.32;;;1.70;;
37063;SDS011;23211;53.912;9.138;2022-09-23T14:24:29;4.13;;;2.17;;
37063;SDS011;23211;53.912;9.138;2022-09-23T14:27:31;3.55;;;2.35;;
37063;SDS011;23211;53.912;9.138;2022-09-23T14:30:18;3.45;;;2.10;;
37063;SDS011;23211;53.912;9.138;2022-09-23T14:33:07;4.90;;;2.10;;
37063;SDS011;23211;53.912;9.138;2022-09-23T14:36:01;2.33;;;1.67;;
37063;SDS011;23211;53.912;9.138;2022-09-23T14:38:52;4.38;;;1.83;;
37063;SDS011;23211;53.912;9.138;2022-09-23T14:41:38;3.08;;;2.33;;
37063;SDS011;23211;53.912;9.138;2022-09-23T14:44:27;3.47;;;2.17;;
37063;SDS011;23211;53.912;9.138;2022-09-23T14:47:13;3.53;;;2.20;;
37063;SDS011;23211;53.912;9.138;2022-09-23T14:49:59;4.57;;;2.05;;
37063;SDS011;23211;53.912;9.138;2022-09-23T14:58:58;3.72;;;2.70;;
37063;SDS011;23211;53.912;9.138;2022-09-23T15:01:45;5.75;;;2.67;;
37063;SDS011;23211;53.912;9.138;2022-09-23T15:04:30;5.40;;;2.67;;
37063;SDS011;23211;53.912;9.138;2022-09-23T15:07:17;6.32;;;2.72;;
37063;SDS011;23211;53.912;9.138;2022-09-23T15:10:05;3.67;;;2.33;;
37063;SDS011;23211;53.912;9.138;2022-09-23T15:12:54;5.13;;;2.42;;
37063;SDS011;23211;53.912;9.138;2022-09-23T15:15:52;4.85;;;2.25;;
37063;SDS011;23211;53.912;9.138;2022-09-23T15:18:39;6.00;;;2.60;;
37063;SDS011;23211;53.912;9.138;2022-09-23T15:21:35;5.97;;;2.90;;
37063;SDS011;23211;53.912;9.138;2022-09-23T15:30:15;6.03;;;3.00;;
37063;SDS011;23211;53.912;9.138;2022-09-23T15:33:03;5.97;;;2.50;;
37063;SDS011;23211;53.912;9.138;2022-09-23T15:35:50;4.80;;;2.50;;
37063;SDS011;23211;53.912;9.138;2022-09-23T15:38:40;4.78;;;2.88;;
37063;SDS011;23211;53.912;9.138;2022-09-23T15:41:29;5.80;;;2.40;;
37063;SDS011;23211;53.912;9.138;2022-09-23T15:44:16;5.90;;;2.15;;
37063;SDS011;23211;53.912;9.138;2022-09-23T15:47:03;3.97;;;2.15;;
37063;SDS011;23211;53.912;9.138;2022-09-23T15:49:49;4.97;;;2.60;;
37063;SDS011;23211;53.912;9.138;2022-09-23T15:52:35;3.10;;;2.42;;
37063;SDS011;23211;53.912;9.138;2022-09-23T15:55:22;6.07;;;2.50;;
37063;SDS011;23211;53.912;9.138;2022-09-23T15:58:08;6.72;;;3.10;;
37063;SDS011;23211;53.912;9.138;2022-09-23T16:00:54;4.45;;;2.03;;
37063;SDS011;23211;53.912;9.138;2022-09-23T16:03:41;4.47;;;2.50;;
37063;SDS011;23211;53.912;9.138;2022-09-23T16:06:26;3.97;;;2.30;;
37063;SDS011;23211;53.912;9.138;2022-09-23T16:09:13;3.83;;;2.30;;
37063;SDS011;23211;53.912;9.138;2022-09-23T16:11:59;5.03;;;2.90;;
37063;SDS011;23211;53.912;9.138;2022-09-23T16:14:47;3.42;;;2.60;;
37063;SDS011;23211;53.912;9.138;2022-09-23T16:17:32;3.65;;;2.70;;
37063;SDS011;23211;53.912;9.138;2022-09-23T16:20:18;4.72;;;2.78;;
37063;SDS011;23211;53.912;9.138;2022-09-23T16:23:23;5.72;;;2.83;;
37063;SDS011;23211;53.912;9.138;2022-09-23T16:26:22;7.57;;;2.65;;
37063;SDS011;23211;53.912;9.138;2022-09-23T16:29:14;7.20;;;2.60;;
37063;SDS011;23211;53.912;9.138;2022-09-23T16:32:00;7.68;;;3.00;;
37063;SDS011;23211;53.912;9.138;2022-09-23T16:34:46;3.97;;;2.30;;
37063;SDS011;23211;53.912;9.138;2022-09-23T16:37:32;4.00;;;2.45;;
37063;SDS011;23211;53.912;9.138;2022-09-23T16:40:19;4.63;;;2.50;;
37063;SDS011;23211;53.912;9.138;2022-09-23T16:43:06;6.72;;;2.72;;
37063;SDS011;23211;53.912;9.138;2022-09-23T16:45:52;5.45;;;2.75;;
37063;SDS011;23211;53.912;9.138;2022-09-23T16:48:39;7.60;;;2.50;;
37063;SDS011;23211;53.912;9.138;2022-09-23T16:51:26;3.22;;;2.30;;
37063;SDS011;23211;53.912;9.138;2022-09-23T16:54:14;5.72;;;2.42;;
37063;SDS011;23211;53.912;9.138;2022-09-23T16:57:01;4.05;;;2.72;;
37063;SDS011;23211;53.912;9.138;2022-09-23T16:59:47;3.63;;;2.65;;
37063;SDS011;23211;53.912;9.138;2022-09-23T17:02:51;6.07;;;3.35;;
37063;SDS011;23211;53.912;9.138;2022-09-23T17:05:56;6.88;;;3.95;;
37063;SDS011;23211;53.912;9.138;2022-09-23T17:08:42;6.28;;;4.05;;
37063;SDS011;23211;53.912;9.138;2022-09-23T17:11:30;8.00;;;3.92;;
37063;SDS011;23211;53.912;9.138;2022-09-23T17:14:16;6.35;;;4.18;;
37063;SDS011;23211;53.912;9.138;2022-09-23T17:17:02;5.75;;;2.90;;
37063;SDS011;23211;53.912;9.138;2022-09-23T17:19:47;4.60;;;2.70;;
37063;SDS011;23211;53.912;9.138;2022-09-23T17:22:33;4.28;;;2.53;;
37063;SDS011;23211;53.912;9.138;2022-09-23T17:25:19;7.00;;;2.97;;
37063;SDS011;23211;53.912;9.138;2022-09-23T17:28:05;4.43;;;2.50;;
37063;SDS011;23211;53.912;9.138;2022-09-23T17:30:55;4.90;;;2.60;;
37063;SDS011;23211;53.912;9.138;2022-09-23T17:33:42;5.40;;;3.08;;
37063;SDS011;23211;53.912;9.138;2022-09-23T17:36:28;3.90;;;2.67;;
37063;SDS011;23211;53.912;9.138;2022-09-23T17:39:14;4.50;;;2.42;;
37063;SDS011;23211;53.912;9.138;2022-09-23T17:42:01;7.57;;;2.92;;
37063;SDS011;23211;53.912;9.138;2022-09-23T17:44:47;7.40;;;2.92;;
37063;SDS011;23211;53.912;9.138;2022-09-23T17:47:33;6.43;;;2.75;;
37063;SDS011;23211;53.912;9.138;2022-09-23T17:50:20;6.03;;;3.03;;
37063;SDS011;23211;53.912;9.138;2022-09-23T17:53:08;5.47;;;3.03;;
37063;SDS011;23211;53.912;9.138;2022-09-23T17:55:58;4.03;;;2.85;;
37063;SDS011;23211;53.912;9.138;2022-09-23T17:58:46;5.45;;;2.63;;
37063;SDS011;23211;53.912;9.138;2022-09-23T18:01:33;4.63;;;2.58;;
37063;SDS011;23211;53.912;9.138;2022-09-23T18:04:19;4.63;;;2.85;;
37063;SDS011;23211;53.912;9.138;2022-09-23T18:07:05;6.65;;;3.45;;
37063;SDS011;23211;53.912;9.138;2022-09-23T18:09:51;7.10;;;3.65;;
37063;SDS011;23211;53.912;9.138;2022-09-23T18:12:37;5.45;;;3.83;;
37063;SDS011;23211;53.912;9.138;2022-09-23T18:15:23;7.97;;;4.03;;
37063;SDS011;23211;53.912;9.138;2022-09-23T18:18:09;9.00;;;4.10;;
37063;SDS011;23211;53.912;9.138;2022-09-23T18:21:01;7.93;;;5.53;;
37063;SDS011;23211;53.912;9.138;2022-09-23T18:23:47;7.90;;;5.25;;
37063;SDS011;23211;53.912;9.138;2022-09-23T18:26:34;9.07;;;5.13;;
37063;SDS011;23211;53.912;9.138;2022-09-23T18:29:20;8.88;;;5.47;;
37063;SDS011;23211;53.912;9.138;2022-09-23T18:32:06;9.20;;;5.47;;
37063;SDS011;23211;53.912;9.138;2022-09-23T18:34:52;13.70;;;5.63;;
37063;SDS011;23211;53.912;9.138;2022-09-23T18:37:37;12.07;;;5.35;;
37063;SDS011;23211;53.912;9.138;2022-09-23T18:40:23;8.65;;;5.70;;
37063;SDS011;23211;53.912;9.138;2022-09-23T18:43:09;8.45;;;4.82;;
37063;SDS011;23211;53.912;9.138;2022-09-23T18:48:44;9.98;;;5.63;;
37063;SDS011;23211;53.912;9.138;2022-09-23T18:51:52;10.20;;;5.20;;
37063;SDS011;23211;53.912;9.138;2022-09-23T18:54:40;9.38;;;5.13;;
37063;SDS011;23211;53.912;9.138;2022-09-23T18:57:26;11.00;;;5.18;;
37063;SDS011;23211;53.912;9.138;2022-09-23T19:00:13;8.25;;;5.03;;
37063;SDS011;23211;53.912;9.138;2022-09-23T19:02:59;7.00;;;4.53;;
37063;SDS011;23211;53.912;9.138;2022-09-23T19:05:45;8.85;;;5.45;;
37063;SDS011;23211;53.912;9.138;2022-09-23T19:08:30;7.15;;;4.90;;
37063;SDS011;23211;53.912;9.138;2022-09-23T19:11:17;7.03;;;4.80;;
37063;SDS011;23211;53.912;9.138;2022-09-23T19:14:04;6.68;;;4.95;;
37063;SDS011;23211;53.912;9.138;2022-09-23T19:16:52;6.80;;;4.88;;
37063;SDS011;23211;53.912;9.138;2022-09-23T19:19:38;8.00;;;4.40;;
37063;SDS011;23211;53.912;9.138;2022-09-23T19:22:23;9.85;;;5.00;;
37063;SDS011;23211;53.912;9.138;2022-09-23T19:25:09;6.97;;;4.43;;
37063;SDS011;23211;53.912;9.138;2022-09-23T19:27:55;11.40;;;4.78;;